KNUW/NUW METAR and TAF weather

Enter ICAO airport designator
Station Type Date Time Source
KNUW METAR 2020/09/27 16:56 UTC NOAA

KNUW 271656Z 11005KT 10SM FEW050 SCT080 BKN100 13/11 A3051 RMK AO2 RAE00 SLP330 P0000 T01330111


Station Type Date Time Source
KNUW Decoded METAR 2020/09/27 16:56 UTC NOAA

NAS WHIDBEY ISLAND, WA, United States (KNUW) 48-21N 122-39W 8M
Sep 27, 2020 - 12:56 PM EDT / 2020.09.27 1656 UTC
Wind: from the ESE (110 degrees) at 6 MPH (5 KT):0
Visibility: 10 mile(s):0
Sky conditions: mostly cloudy
Precipitation last hour: A trace
Temperature: 55.9 F (13.3 C)
Dew Point: 52.0 F (11.1 C)
Relative Humidity: 86%
Pressure (altimeter): 30.51 in. Hg (1033 hPa)
ob: KNUW 271656Z 11005KT 10SM FEW050 SCT080 BKN100 13/11 A3051 RMK AO2 RAE00 SLP330 P0000 T01330111
cycle: 17

Station Type Date Time Source
KNUW TAF 2020/09/27 23:14 UTC NOAA

TAF KNUW 2623/2723 VRB06KT 9999 VCSH SCT045 BKN070 BKN100 640609 540009 QNH3008INS
TEMPO 2623/2703 09009KT 8000 -SHRA BKN025 OVC050
FM270400 VRB06KT 9999 FEW030 SCT050 SCT100 600000 540009 QNH3015INS
TEMPO 2711/2717 6000 BR BKN015
FM271800 20009KT 9999 SCT050 BKN100 500000 QNH3020INS T11/2713Z T17/2722Z FS30170

Example: see airport list